Time;durP1;ratioP1;P1;durP2;ratioP2;P2;SDS_P1;SDS_P2;PMS_P1;PMS_P2;Temp;Humidity;BMP_temperature;BMP_pressure;BME280_temperature;BME280_humidity;BME280_pressure;Samples;Min_cycle;Max_cycle;Signal;HPM_P1;HPM_P2
2022/10/27 00:01:21;;;;;;;10.13;5.90;;;;;;;;;;7390781;19;20006;-75
2022/10/27 00:03:49;;;;;;;14.00;5.82;;;;;;;;;;7393469;19;20018;-75
2022/10/27 00:06:15;;;;;;;15.65;6.07;;;;;;;;;;7390949;19;20413;-75
2022/10/27 00:08:40;;;;;;;12.10;5.35;;;;;;;;;;7392304;19;20035;-75
2022/10/27 00:11:06;;;;;;;11.60;5.65;;;;;;;;;;7390632;19;20030;-74
2022/10/27 00:13:32;;;;;;;10.57;6.03;;;;;;;;;;7392330;19;20010;-75
2022/10/27 00:16:00;;;;;;;14.23;5.80;;;;;;;;;;7393482;19;19995;-74
2022/10/27 00:18:25;;;;;;;16.70;6.13;;;;;;;;;;7390520;19;20066;-75
2022/10/27 00:20:59;;;;;;;12.32;5.72;;;;;;;;;;7391869;19;20037;-76
2022/10/27 00:23:24;;;;;;;16.55;5.60;;;;;;;;;;7390317;19;20058;-75
2022/10/27 00:25:52;;;;;;;12.32;5.95;;;;;;;;;;7392449;19;20376;-75
2022/10/27 00:28:17;;;;;;;13.07;5.57;;;;;;;;;;7390384;19;19998;-76
2022/10/27 00:30:43;;;;;;;9.70;5.35;;;;;;;;;;7389697;19;20470;-75
2022/10/27 00:33:08;;;;;;;10.90;5.20;;;;;;;;;;7388157;19;20300;-75
2022/10/27 00:35:35;;;;;;;11.25;5.47;;;;;;;;;;7390745;19;19998;-74
2022/10/27 00:38:00;;;;;;;11.98;5.72;;;;;;;;;;7390064;19;20349;-74
2022/10/27 00:40:26;;;;;;;11.88;5.40;;;;;;;;;;7391801;19;19994;-74
2022/10/27 00:42:51;;;;;;;13.93;6.50;;;;;;;;;;7388527;19;20131;-75
2022/10/27 00:45:16;;;;;;;13.95;6.07;;;;;;;;;;7390359;19;20003;-75
2022/10/27 00:47:42;;;;;;;14.70;7.05;;;;;;;;;;7391042;19;20470;-75
2022/10/27 00:50:25;;;;;;;12.48;6.30;;;;;;;;;;7387874;19;20003;-74
2022/10/27 00:52:55;;;;;;;16.13;6.43;;;;;;;;;;7389534;19;20002;-75
2022/10/27 00:55:28;;;;;;;14.38;6.70;;;;;;;;;;7392049;19;20002;-75
2022/10/27 00:57:57;;;;;;;10.70;6.35;;;;;;;;;;7392766;19;19998;-75
2022/10/27 01:00:23;;;;;;;19.75;7.00;;;;;;;;;;7391081;19;20002;-75
2022/10/27 01:02:48;;;;;;;16.77;6.57;;;;;;;;;;7387562;19;20006;-75
2022/10/27 01:05:18;;;;;;;12.77;6.38;;;;;;;;;;7390546;19;19998;-75
2022/10/27 01:07:45;;;;;;;12.07;6.50;;;;;;;;;;7390752;19;19994;-74
2022/10/27 01:10:12;;;;;;;15.77;7.15;;;;;;;;;;7389069;19;19999;-75
2022/10/27 01:12:38;;;;;;;11.43;6.22;;;;;;;;;;7387564;19;20006;-75
2022/10/27 01:15:04;;;;;;;25.05;6.95;;;;;;;;;;7390510;19;19999;-75
2022/10/27 01:17:50;;;;;;;15.32;6.38;;;;;;;;;;7388887;19;20070;-75
2022/10/27 01:20:48;;;;;;;14.18;6.38;;;;;;;;;;7390517;19;20463;-75
2022/10/27 01:23:21;;;;;;;17.85;6.50;;;;;;;;;;7385279;19;20006;-75
2022/10/27 01:25:59;;;;;;;11.68;6.32;;;;;;;;;;7390910;19;20725;-75
2022/10/27 01:28:46;;;;;;;16.15;6.72;;;;;;;;;;7387366;19;19999;-76
2022/10/27 01:31:49;;;;;;;19.13;7.20;;;;;;;;;;7389042;19;20002;-75
2022/10/27 01:34:41;;;;;;;17.25;7.35;;;;;;;;;;7389115;19;20010;-75
2022/10/27 01:37:22;;;;;;;16.23;6.28;;;;;;;;;;7390454;19;20005;-74
2022/10/27 01:40:03;;;;;;;21.50;7.00;;;;;;;;;;7390366;19;20070;-74
2022/10/27 01:42:55;;;;;;;17.30;6.85;;;;;;;;;;7387488;19;20023;-74
2022/10/27 01:45:26;;;;;;;13.80;6.82;;;;;;;;;;7389231;19;20003;-75
2022/10/27 01:47:53;;;;;;;13.32;7.07;;;;;;;;;;7390961;19;20009;-75
2022/10/27 01:50:27;;;;;;;18.10;6.82;;;;;;;;;;7386502;19;20003;-74
2022/10/27 01:52:52;;;;;;;17.88;6.70;;;;;;;;;;7387695;19;20261;-76
2022/10/27 01:55:47;;;;;;;12.35;6.82;;;;;;;;;;7389873;19;20582;-75
2022/10/27 01:58:36;;;;;;;14.73;6.90;;;;;;;;;;7387890;19;19998;-76
2022/10/27 02:01:39;;;;;;;15.73;6.60;;;;;;;;;;7387767;19;20006;-74
2022/10/27 02:04:13;;;;;;;18.75;7.03;;;;;;;;;;7388957;19;20471;-74
2022/10/27 02:06:46;;;;;;;14.90;6.70;;;;;;;;;;7389012;19;19999;-75
2022/10/27 02:09:20;;;;;;;18.58;7.00;;;;;;;;;;7388651;19;20329;-75
2022/10/27 02:11:50;;;;;;;17.13;7.45;;;;;;;;;;7386189;19;20006;-75
2022/10/27 02:14:16;;;;;;;18.65;6.72;;;;;;;;;;7386921;19;20005;-75
2022/10/27 02:17:02;;;;;;;14.18;6.40;;;;;;;;;;7385037;19;19999;-77
2022/10/27 02:19:35;;;;;;;14.60;6.25;;;;;;;;;;7389666;19;20003;-75
2022/10/27 02:22:01;;;;;;;17.88;6.43;;;;;;;;;;7384063;19;20030;-74
2022/10/27 02:24:27;;;;;;;15.88;7.05;;;;;;;;;;7387394;19;20026;-73
2022/10/27 02:27:06;;;;;;;14.88;7.30;;;;;;;;;;7384690;19;20081;-74
2022/10/27 02:29:41;;;;;;;13.65;6.70;;;;;;;;;;7385175;19;20471;-74
2022/10/27 02:32:11;;;;;;;15.02;7.50;;;;;;;;;;7385984;19;20003;-74
2022/10/27 02:34:37;;;;;;;13.85;6.60;;;;;;;;;;7391643;19;20003;-75
2022/10/27 02:37:04;;;;;;;13.25;7.40;;;;;;;;;;7387724;19;20343;-75
2022/10/27 02:39:30;;;;;;;16.10;7.43;;;;;;;;;;7387694;19;20501;-74
2022/10/27 02:41:55;;;;;;;18.30;6.85;;;;;;;;;;7384701;19;20006;-76
2022/10/27 02:44:20;;;;;;;11.73;6.32;;;;;;;;;;7385699;19;20013;-75
2022/10/27 02:46:46;;;;;;;19.85;6.72;;;;;;;;;;7387879;19;19998;-75
2022/10/27 02:49:11;;;;;;;22.25;7.18;;;;;;;;;;7385552;19;20062;-77
2022/10/27 02:51:36;;;;;;;15.02;6.53;;;;;;;;;;7383553;19;20006;-75
2022/10/27 02:54:02;;;;;;;15.68;6.53;;;;;;;;;;7387952;19;20018;-77
2022/10/27 02:56:27;;;;;;;16.63;6.97;;;;;;;;;;7387769;19;19999;-76
2022/10/27 02:58:52;;;;;;;17.02;6.50;;;;;;;;;;7387775;19;20003;-76
2022/10/27 03:01:18;;;;;;;16.65;7.10;;;;;;;;;;7386121;19;20021;-74
2022/10/27 03:03:43;;;;;;;19.80;7.05;;;;;;;;;;7387867;19;20005;-75
2022/10/27 03:06:08;;;;;;;13.80;6.22;;;;;;;;;;7385439;19;20400;-76
2022/10/27 03:08:33;;;;;;;13.55;6.55;;;;;;;;;;7386907;19;20026;-75
2022/10/27 03:10:59;;;;;;;20.50;7.10;;;;;;;;;;7386073;19;20102;-75
2022/10/27 03:13:24;;;;;;;17.63;6.38;;;;;;;;;;7386716;19;20062;-75
2022/10/27 03:15:50;;;;;;;15.05;6.78;;;;;;;;;;7387181;19;20003;-75
2022/10/27 03:18:16;;;;;;;15.98;6.43;;;;;;;;;;7387317;19;20393;-75
2022/10/27 03:20:41;;;;;;;14.65;6.95;;;;;;;;;;7384599;19;20010;-74
2022/10/27 03:23:06;;;;;;;13.82;6.35;;;;;;;;;;7383586;19;20024;-76
2022/10/27 03:25:32;;;;;;;15.55;6.22;;;;;;;;;;7386556;19;20002;-73
2022/10/27 03:27:57;;;;;;;16.65;6.53;;;;;;;;;;7389742;19;20377;-74
2022/10/27 03:30:22;;;;;;;13.25;6.72;;;;;;;;;;7385017;19;19998;-75
2022/10/27 03:32:50;;;;;;;11.85;6.30;;;;;;;;;;7383723;19;20009;-75
2022/10/27 03:35:17;;;;;;;19.98;6.63;;;;;;;;;;7384695;19;20313;-75
2022/10/27 03:37:43;;;;;;;18.48;8.00;;;;;;;;;;7387410;19;19999;-74
2022/10/27 03:40:09;;;;;;;13.73;6.32;;;;;;;;;;7387011;19;20468;-76
2022/10/27 03:42:39;;;;;;;11.93;6.80;;;;;;;;;;7384588;19;20084;-76
2022/10/27 03:45:04;;;;;;;16.40;6.53;;;;;;;;;;7384987;19;20015;-73
2022/10/27 03:47:30;;;;;;;16.95;7.20;;;;;;;;;;7387315;19;20119;-74
2022/10/27 03:49:55;;;;;;;13.38;6.55;;;;;;;;;;7385218;19;20014;-73
2022/10/27 03:52:21;;;;;;;11.77;6.30;;;;;;;;;;7385482;19;19999;-76
2022/10/27 03:54:47;;;;;;;14.05;5.97;;;;;;;;;;7394056;19;19998;-74
2022/10/27 03:57:12;;;;;;;12.95;6.18;;;;;;;;;;7394310;19;20018;-75
2022/10/27 03:59:38;;;;;;;14.05;5.93;;;;;;;;;;7393920;19;19998;-76
2022/10/27 04:02:03;;;;;;;15.40;6.82;;;;;;;;;;7391020;19;20361;-76
2022/10/27 04:04:29;;;;;;;11.93;6.97;;;;;;;;;;7391838;19;19998;-74
2022/10/27 04:06:54;;;;;;;16.92;6.97;;;;;;;;;;7393388;19;20611;-75
2022/10/27 04:09:19;;;;;;;14.40;7.38;;;;;;;;;;7390320;19;19998;-74
2022/10/27 04:11:44;;;;;;;15.35;7.70;;;;;;;;;;7390782;19;20074;-75
2022/10/27 04:14:10;;;;;;;16.20;8.40;;;;;;;;;;7393265;19;20002;-74
2022/10/27 04:16:35;;;;;;;16.45;9.68;;;;;;;;;;7393664;19;19990;-74
2022/10/27 04:19:01;;;;;;;17.60;8.55;;;;;;;;;;7392686;19;20121;-75
2022/10/27 04:21:26;;;;;;;21.02;8.93;;;;;;;;;;7390908;19;19998;-76
2022/10/27 04:24:04;;;;;;;18.23;7.88;;;;;;;;;;7395135;19;20015;-74
2022/10/27 04:26:38;;;;;;;20.38;8.52;;;;;;;;;;7392607;19;20069;-73
2022/10/27 04:29:04;;;;;;;18.40;8.43;;;;;;;;;;7390799;19;20006;-75
2022/10/27 04:31:38;;;;;;;21.27;8.98;;;;;;;;;;7393448;19;20023;-73
2022/10/27 04:34:06;;;;;;;16.33;7.63;;;;;;;;;;7390960;19;20353;-73
2022/10/27 04:36:59;;;;;;;19.23;8.77;;;;;;;;;;7391813;19;20368;-75
2022/10/27 04:39:24;;;;;;;17.92;8.90;;;;;;;;;;7391292;19;20003;-74
2022/10/27 04:42:03;;;;;;;18.65;8.95;;;;;;;;;;7387711;19;20033;-74
2022/10/27 04:44:32;;;;;;;24.85;8.73;;;;;;;;;;7390774;19;20086;-75
2022/10/27 04:46:57;;;;;;;19.65;8.20;;;;;;;;;;7394259;19;20074;-75
2022/10/27 04:49:22;;;;;;;18.85;8.65;;;;;;;;;;7390847;19;19999;-75
2022/10/27 04:51:48;;;;;;;22.15;8.65;;;;;;;;;;7389899;19;20341;-74
2022/10/27 04:54:13;;;;;;;14.30;7.93;;;;;;;;;;7391694;19;20011;-75
2022/10/27 04:56:38;;;;;;;18.60;8.40;;;;;;;;;;7391583;19;20108;-74
2022/10/27 04:59:04;;;;;;;15.70;8.60;;;;;;;;;;7389643;19;19998;-75
2022/10/27 05:01:29;;;;;;;16.33;8.48;;;;;;;;;;7393522;19;19998;-74
2022/10/27 05:03:55;;;;;;;16.63;8.38;;;;;;;;;;7392132;19;19998;-75
2022/10/27 05:06:21;;;;;;;23.60;11.05;;;;;;;;;;7396207;19;19993;-73
2022/10/27 05:08:46;;;;;;;45.63;25.52;;;;;;;;;;7390638;19;20524;-73
2022/10/27 05:11:11;;;;;;;19.77;10.35;;;;;;;;;;7393303;19;20006;-75
2022/10/27 05:13:37;;;;;;;20.27;8.35;;;;;;;;;;7395150;19;20014;-72
2022/10/27 05:16:03;;;;;;;18.08;8.75;;;;;;;;;;7393370;19;19994;-75
2022/10/27 05:18:29;;;;;;;16.92;8.80;;;;;;;;;;7390106;19;20009;-73
2022/10/27 05:20:54;;;;;;;19.08;9.27;;;;;;;;;;7392432;19;20074;-75
2022/10/27 05:23:20;;;;;;;34.17;9.88;;;;;;;;;;7392679;19;20015;-75
2022/10/27 05:25:55;;;;;;;40.45;11.52;;;;;;;;;;7392646;19;20088;-73
2022/10/27 05:28:20;;;;;;;66.72;11.05;;;;;;;;;;7299904;19;20046;-79
2022/10/27 05:30:46;;;;;;;68.05;12.73;;;;;;;;;;7384497;19;19999;-78
2022/10/27 05:33:12;;;;;;;68.25;13.52;;;;;;;;;;7388446;19;20002;-76
2022/10/27 05:35:37;;;;;;;42.95;12.38;;;;;;;;;;7394374;19;19999;-77
2022/10/27 05:38:03;;;;;;;85.38;13.50;;;;;;;;;;7394169;19;19995;-76
2022/10/27 05:40:33;;;;;;;191.82;16.85;;;;;;;;;;7392620;19;20003;-76
2022/10/27 05:43:00;;;;;;;52.50;15.27;;;;;;;;;;7387499;19;20011;-74
2022/10/27 05:45:26;;;;;;;34.88;14.88;;;;;;;;;;7387207;19;20027;-74
2022/10/27 05:48:00;;;;;;;38.00;14.13;;;;;;;;;;7386293;19;20018;-74
2022/10/27 05:50:27;;;;;;;45.67;15.25;;;;;;;;;;7388557;19;20022;-74
2022/10/27 05:52:52;;;;;;;98.00;16.02;;;;;;;;;;7388044;19;20003;-74
2022/10/27 05:55:18;;;;;;;44.13;15.13;;;;;;;;;;7389350;19;20009;-74
2022/10/27 05:57:52;;;;;;;47.90;16.92;;;;;;;;;;7388622;19;20017;-74
2022/10/27 06:00:17;;;;;;;65.25;35.08;;;;;;;;;;7389211;19;20010;-74
2022/10/27 06:02:42;;;;;;;33.92;16.90;;;;;;;;;;7383821;19;19994;-73
2022/10/27 06:05:08;;;;;;;33.42;14.80;;;;;;;;;;7386659;19;20010;-74
2022/10/27 06:07:33;;;;;;;74.03;14.30;;;;;;;;;;7390370;19;20043;-70
2022/10/27 06:09:58;;;;;;;67.43;13.02;;;;;;;;;;7385168;19;20559;-70
2022/10/27 06:12:24;;;;;;;35.25;12.15;;;;;;;;;;7386285;19;20007;-70
2022/10/27 06:14:49;;;;;;;34.03;10.98;;;;;;;;;;7386430;19;20273;-72
2022/10/27 06:17:15;;;;;;;24.75;11.82;;;;;;;;;;7384795;19;19995;-71
2022/10/27 06:19:40;;;;;;;30.98;11.48;;;;;;;;;;7385075;19;20125;-71
2022/10/27 06:22:05;;;;;;;67.00;32.45;;;;;;;;;;7387907;19;20022;-70
2022/10/27 06:24:31;;;;;;;57.75;31.58;;;;;;;;;;7387631;19;19991;-71
2022/10/27 06:26:56;;;;;;;39.65;14.70;;;;;;;;;;7386043;19;19994;-70
2022/10/27 06:29:21;;;;;;;22.60;12.52;;;;;;;;;;7386167;19;19991;-70
2022/10/27 06:31:46;;;;;;;26.95;12.15;;;;;;;;;;7387201;19;20002;-71
2022/10/27 06:34:12;;;;;;;21.45;11.05;;;;;;;;;;7388888;19;20476;-71
2022/10/27 06:36:37;;;;;;;25.73;11.65;;;;;;;;;;7379647;19;20014;-72
2022/10/27 06:39:02;;;;;;;21.60;11.35;;;;;;;;;;7388813;19;20006;-73
2022/10/27 06:41:28;;;;;;;22.92;11.75;;;;;;;;;;7387142;19;19995;-73
2022/10/27 06:43:53;;;;;;;19.88;10.90;;;;;;;;;;7389712;19;19998;-70
2022/10/27 06:46:18;;;;;;;24.02;11.65;;;;;;;;;;7388822;19;20022;-69
2022/10/27 06:48:43;;;;;;;23.60;11.55;;;;;;;;;;7388143;19;20403;-71
2022/10/27 06:51:09;;;;;;;30.63;11.45;;;;;;;;;;7385523;19;19991;-73
2022/10/27 06:53:34;;;;;;;22.83;11.50;;;;;;;;;;7387974;19;19995;-73
2022/10/27 06:55:59;;;;;;;24.67;12.02;;;;;;;;;;7387853;19;20394;-71
2022/10/27 06:58:25;;;;;;;25.88;11.25;;;;;;;;;;7388426;19;19995;-71
2022/10/27 07:00:50;;;;;;;36.42;12.25;;;;;;;;;;7383069;19;20015;-69
2022/10/27 07:03:15;;;;;;;24.42;13.20;;;;;;;;;;7383947;19;20006;-71
2022/10/27 07:05:41;;;;;;;32.17;15.57;;;;;;;;;;7385116;19;20010;-72
2022/10/27 07:08:06;;;;;;;30.55;12.60;;;;;;;;;;7388988;19;19995;-70
2022/10/27 07:10:31;;;;;;;20.90;11.32;;;;;;;;;;7387335;19;20002;-71
2022/10/27 07:12:59;;;;;;;23.85;11.40;;;;;;;;;;7384913;19;20456;-69
2022/10/27 07:15:31;;;;;;;20.85;11.60;;;;;;;;;;7386165;19;19999;-70
2022/10/27 07:17:59;;;;;;;27.15;11.40;;;;;;;;;;7385291;19;20477;-69
2022/10/27 07:20:25;;;;;;;29.90;12.77;;;;;;;;;;7387371;19;19999;-70
2022/10/27 07:22:50;;;;;;;66.93;12.43;;;;;;;;;;7385879;19;20003;-71
2022/10/27 07:25:16;;;;;;;37.58;12.25;;;;;;;;;;7388678;19;20333;-70
2022/10/27 07:27:41;;;;;;;28.83;12.88;;;;;;;;;;7394246;19;19991;-69
2022/10/27 07:30:07;;;;;;;30.70;12.48;;;;;;;;;;7393886;19;20135;-71
2022/10/27 07:32:32;;;;;;;26.27;12.15;;;;;;;;;;7387414;19;20010;-68
2022/10/27 07:34:57;;;;;;;28.85;13.35;;;;;;;;;;7396025;19;19994;-70
2022/10/27 07:37:23;;;;;;;29.38;12.57;;;;;;;;;;7395128;19;19995;-72
2022/10/27 07:39:49;;;;;;;34.00;18.45;;;;;;;;;;7395082;19;20458;-70
2022/10/27 07:42:16;;;;;;;27.73;12.60;;;;;;;;;;7394040;19;20013;-71
2022/10/27 07:44:41;;;;;;;23.17;10.77;;;;;;;;;;7394885;19;20003;-72
2022/10/27 07:47:07;;;;;;;26.73;11.63;;;;;;;;;;7396150;19;20021;-71
2022/10/27 07:49:32;;;;;;;25.80;11.50;;;;;;;;;;7395810;19;19999;-70
2022/10/27 07:51:57;;;;;;;21.25;10.57;;;;;;;;;;7393153;19;20003;-70
2022/10/27 07:54:23;;;;;;;21.48;10.57;;;;;;;;;;7396979;19;20075;-75
2022/10/27 07:56:48;;;;;;;20.13;9.55;;;;;;;;;;7394429;19;19991;-75
2022/10/27 07:59:14;;;;;;;18.38;9.68;;;;;;;;;;7395513;19;19995;-72
2022/10/27 08:01:39;;;;;;;16.77;9.48;;;;;;;;;;7391838;19;20350;-71
2022/10/27 08:04:04;;;;;;;18.45;8.93;;;;;;;;;;7396135;19;20044;-73
2022/10/27 08:06:30;;;;;;;17.30;8.80;;;;;;;;;;7394749;19;20093;-70
2022/10/27 08:08:55;;;;;;;16.08;7.95;;;;;;;;;;7391662;19;19999;-71
2022/10/27 08:11:22;;;;;;;14.10;7.60;;;;;;;;;;7390834;19;20023;-71
2022/10/27 08:13:47;;;;;;;22.33;8.68;;;;;;;;;;7394021;19;20332;-71
2022/10/27 08:16:13;;;;;;;15.07;8.02;;;;;;;;;;7394691;19;20002;-71
2022/10/27 08:18:38;;;;;;;17.02;8.43;;;;;;;;;;7391313;19;19994;-71
2022/10/27 08:21:04;;;;;;;19.50;8.43;;;;;;;;;;7390827;19;20003;-72
2022/10/27 08:23:30;;;;;;;15.82;8.20;;;;;;;;;;7390759;19;20010;-73
2022/10/27 08:25:55;;;;;;;12.18;7.25;;;;;;;;;;7384123;19;20002;-72
2022/10/27 08:28:23;;;;;;;18.45;6.88;;;;;;;;;;7385465;19;20013;-73
2022/10/27 08:30:50;;;;;;;10.80;6.88;;;;;;;;;;7391713;19;20125;-73
2022/10/27 08:33:15;;;;;;;13.95;6.80;;;;;;;;;;7391447;19;20383;-73
2022/10/27 08:35:40;;;;;;;9.95;6.03;;;;;;;;;;7393842;19;20026;-72
2022/10/27 08:38:15;;;;;;;10.43;6.10;;;;;;;;;;7392260;19;19995;-72
2022/10/27 08:41:22;;;;;;;12.10;6.32;;;;;;;;;;7391811;19;20062;-73
2022/10/27 08:43:54;;;;;;;12.43;6.20;;;;;;;;;;7391818;19;19999;-69
2022/10/27 08:46:37;;;;;;;11.48;6.47;;;;;;;;;;7392872;19;20410;-73
2022/10/27 08:49:08;;;;;;;11.30;6.18;;;;;;;;;;7392702;19;20006;-71
2022/10/27 08:51:34;;;;;;;11.45;5.97;;;;;;;;;;7389285;19;20107;-72
2022/10/27 08:54:02;;;;;;;10.18;5.75;;;;;;;;;;7393154;19;20109;-69
2022/10/27 08:56:35;;;;;;;13.38;6.00;;;;;;;;;;7386019;19;20031;-70
2022/10/27 08:59:03;;;;;;;13.63;6.70;;;;;;;;;;7356720;19;20324;-70
2022/10/27 09:01:52;;;;;;;10.80;5.50;;;;;;;;;;7388044;19;20027;-68
2022/10/27 09:04:43;;;;;;;11.45;6.22;;;;;;;;;;7389991;19;20002;-69
2022/10/27 09:07:33;;;;;;;10.15;5.72;;;;;;;;;;7393848;19;20507;-70
2022/10/27 09:10:04;;;;;;;17.52;6.03;;;;;;;;;;7390066;19;20348;-70
2022/10/27 09:12:48;;;;;;;11.27;6.13;;;;;;;;;;7389717;19;20105;-70
2022/10/27 09:15:36;;;;;;;14.32;5.63;;;;;;;;;;7393020;19;20541;-71
2022/10/27 09:18:09;;;;;;;10.10;5.82;;;;;;;;;;7389647;19;20056;-69
2022/10/27 09:20:40;;;;;;;12.23;5.53;;;;;;;;;;7391530;19;20365;-68
2022/10/27 09:23:11;;;;;;;9.75;5.60;;;;;;;;;;7390800;19;20003;-76
2022/10/27 09:25:39;;;;;;;10.90;4.80;;;;;;;;;;7391097;19;20468;-78
2022/10/27 09:28:04;;;;;;;9.20;4.97;;;;;;;;;;7390050;19;20027;-77
2022/10/27 09:30:36;;;;;;;10.73;4.90;;;;;;;;;;7389860;19;20003;-77
2022/10/27 09:33:01;;;;;;;11.82;5.70;;;;;;;;;;7388557;19;20046;-77
2022/10/27 09:35:30;;;;;;;8.18;4.43;;;;;;;;;;7392802;19;20432;-78
2022/10/27 09:37:57;;;;;;;8.73;4.47;;;;;;;;;;7388260;19;20558;-77
2022/10/27 09:40:24;;;;;;;6.55;3.95;;;;;;;;;;7387233;19;20010;-78
2022/10/27 09:42:54;;;;;;;8.70;4.50;;;;;;;;;;7384837;19;20002;-78
2022/10/27 09:45:21;;;;;;;8.10;4.72;;;;;;;;;;7339057;19;20004;-78
2022/10/27 09:47:53;;;;;;;8.80;4.30;;;;;;;;;;7336865;19;20096;-77
2022/10/27 09:50:24;;;;;;;7.65;4.50;;;;;;;;;;7387260;19;20325;-78
2022/10/27 09:52:50;;;;;;;8.15;4.70;;;;;;;;;;7388372;19;20488;-77
2022/10/27 09:55:17;;;;;;;9.38;4.88;;;;;;;;;;7392967;19;19998;-77
2022/10/27 09:57:44;;;;;;;10.73;4.85;;;;;;;;;;7390733;19;19999;-77
2022/10/27 10:00:30;;;;;;;10.98;5.30;;;;;;;;;;7391179;19;20332;-77
2022/10/27 10:03:04;;;;;;;8.27;4.55;;;;;;;;;;7388087;19;20340;-78
2022/10/27 10:05:36;;;;;;;11.02;5.05;;;;;;;;;;7387171;19;20526;-77
2022/10/27 10:08:22;;;;;;;11.07;5.28;;;;;;;;;;7389554;19;20019;-77
2022/10/27 10:11:01;;;;;;;10.77;4.60;;;;;;;;;;7388870;19;20110;-77
2022/10/27 10:13:28;;;;;;;14.00;5.45;;;;;;;;;;7386052;19;20420;-77
2022/10/27 10:16:23;;;;;;;8.02;4.55;;;;;;;;;;7391698;19;20003;-77
2022/10/27 10:19:18;;;;;;;10.18;4.82;;;;;;;;;;7388650;19;20002;-77
2022/10/27 10:21:56;;;;;;;10.52;4.75;;;;;;;;;;7386395;19;20095;-76
2022/10/27 10:24:27;;;;;;;10.85;4.47;;;;;;;;;;7389930;19;19999;-78
2022/10/27 10:26:59;;;;;;;9.85;5.18;;;;;;;;;;7387868;19;20018;-79
2022/10/27 10:29:30;;;;;;;11.45;5.40;;;;;;;;;;7389711;19;20086;-77
2022/10/27 10:32:10;;;;;;;10.73;6.00;;;;;;;;;;7387662;19;19998;-78
2022/10/27 10:34:36;;;;;;;10.98;5.20;;;;;;;;;;7389291;19;19998;-78
2022/10/27 10:37:02;;;;;;;10.48;5.32;;;;;;;;;;7389711;19;20007;-77
2022/10/27 10:39:34;;;;;;;10.35;5.90;;;;;;;;;;7388299;19;20338;-78
2022/10/27 10:42:08;;;;;;;8.55;4.90;;;;;;;;;;7385165;19;20013;-78
2022/10/27 10:44:34;;;;;;;8.60;5.47;;;;;;;;;;7387000;19;19998;-77
2022/10/27 10:47:00;;;;;;;9.32;5.30;;;;;;;;;;7388005;19;20005;-77
2022/10/27 10:49:33;;;;;;;10.23;6.07;;;;;;;;;;7387583;19;19998;-78
2022/10/27 10:52:01;;;;;;;13.63;5.72;;;;;;;;;;7386211;19;20099;-78
2022/10/27 10:54:36;;;;;;;9.13;5.90;;;;;;;;;;7384878;19;19995;-77
2022/10/27 10:57:02;;;;;;;12.38;5.78;;;;;;;;;;7387334;19;20006;-77
2022/10/27 10:59:30;;;;;;;13.60;5.70;;;;;;;;;;7385134;19;20014;-77
2022/10/27 11:02:24;;;;;;;11.35;6.20;;;;;;;;;;7389800;19;19998;-77
2022/10/27 11:04:49;;;;;;;10.85;6.00;;;;;;;;;;7396190;19;19998;-77
2022/10/27 11:07:26;;;;;;;9.88;5.22;;;;;;;;;;7397524;19;20073;-78
2022/10/27 11:10:13;;;;;;;11.88;5.40;;;;;;;;;;7390378;19;20002;-77
2022/10/27 11:12:56;;;;;;;11.93;5.57;;;;;;;;;;7392933;19;20001;-77
2022/10/27 11:15:44;;;;;;;9.27;5.45;;;;;;;;;;7392963;19;19998;-77
2022/10/27 11:18:32;;;;;;;12.57;6.38;;;;;;;;;;7394662;19;20023;-78
2022/10/27 11:21:00;;;;;;;11.68;5.40;;;;;;;;;;7393360;19;20013;-76
2022/10/27 11:23:31;;;;;;;12.48;5.50;;;;;;;;;;7390645;19;20023;-77
2022/10/27 11:25:58;;;;;;;9.93;5.90;;;;;;;;;;7394382;19;20015;-76
2022/10/27 11:28:31;;;;;;;11.15;6.30;;;;;;;;;;7395771;19;20005;-77
2022/10/27 11:31:17;;;;;;;12.00;6.38;;;;;;;;;;7393730;19;20010;-77
2022/10/27 11:33:50;;;;;;;11.27;7.10;;;;;;;;;;7391339;19;20476;-77
2022/10/27 11:36:30;;;;;;;11.30;6.50;;;;;;;;;;7395501;19;20419;-77
2022/10/27 11:39:11;;;;;;;13.30;6.95;;;;;;;;;;7396202;19;20094;-78
2022/10/27 11:44:47;;;;;;;11.32;6.97;;;;;;;;;;7395824;19;20015;-73
2022/10/27 11:47:24;;;;;;;12.52;6.95;;;;;;;;;;7396387;19;20050;-73
2022/10/27 11:50:11;;;;;;;12.88;7.05;;;;;;;;;;7394248;19;19999;-73
2022/10/27 11:52:48;;;;;;;14.52;7.00;;;;;;;;;;7393827;19;20022;-73
2022/10/27 11:55:17;;;;;;;12.98;7.75;;;;;;;;;;7393763;19;20010;-73
2022/10/27 11:57:48;;;;;;;12.75;6.68;;;;;;;;;;7394017;19;19999;-72
2022/10/27 12:00:25;;;;;;;16.33;7.03;;;;;;;;;;7392122;19;19998;-74
2022/10/27 12:03:11;;;;;;;15.15;7.75;;;;;;;;;;7393099;19;20082;-73
2022/10/27 12:05:45;;;;;;;13.75;7.97;;;;;;;;;;7391212;19;19999;-72
2022/10/27 12:08:22;;;;;;;14.80;7.68;;;;;;;;;;7394025;19;20009;-71
2022/10/27 12:11:13;;;;;;;10.32;6.68;;;;;;;;;;7393699;19;19990;-72
2022/10/27 12:13:38;;;;;;;13.63;7.78;;;;;;;;;;7388549;19;19994;-72
2022/10/27 12:16:08;;;;;;;13.15;7.80;;;;;;;;;;7392909;19;20347;-72
2022/10/27 12:18:56;;;;;;;13.27;7.43;;;;;;;;;;7395228;19;19999;-70
2022/10/27 12:21:29;;;;;;;14.07;7.32;;;;;;;;;;7391022;19;20025;-72
2022/10/27 12:24:06;;;;;;;16.00;7.68;;;;;;;;;;7390646;19;19998;-72
2022/10/27 12:26:38;;;;;;;12.48;7.10;;;;;;;;;;7393991;19;19999;-73
2022/10/27 12:29:06;;;;;;;14.55;7.30;;;;;;;;;;7393700;19;20026;-72
2022/10/27 12:31:37;;;;;;;13.52;7.63;;;;;;;;;;7391080;19;20464;-72
2022/10/27 12:34:05;;;;;;;12.95;7.88;;;;;;;;;;7389782;19;20542;-72
2022/10/27 12:37:04;;;;;;;11.93;7.53;;;;;;;;;;7394952;19;20006;-73
2022/10/27 12:39:46;;;;;;;13.77;8.60;;;;;;;;;;7391156;19;19998;-71
2022/10/27 12:42:29;;;;;;;12.65;7.97;;;;;;;;;;7392210;19;20476;-70
2022/10/27 12:45:16;;;;;;;19.05;9.32;;;;;;;;;;7392591;19;19998;-73
2022/10/27 12:47:41;;;;;;;14.80;9.43;;;;;;;;;;7389093;19;20005;-73
2022/10/27 12:50:25;;;;;;;13.05;8.27;;;;;;;;;;7391070;19;19991;-72
2022/10/27 12:53:12;;;;;;;17.42;9.73;;;;;;;;;;7391151;19;20325;-72
2022/10/27 12:55:50;;;;;;;13.68;8.38;;;;;;;;;;7389754;19;20520;-73
2022/10/27 12:58:52;;;;;;;12.38;7.75;;;;;;;;;;7391649;19;20353;-72
2022/10/27 13:01:22;;;;;;;13.95;8.88;;;;;;;;;;7392979;19;19994;-73
2022/10/27 13:04:29;;;;;;;13.85;9.07;;;;;;;;;;7387416;19;19999;-72
2022/10/27 13:07:22;;;;;;;14.05;8.90;;;;;;;;;;7392222;19;19998;-72
2022/10/27 13:10:11;;;;;;;16.70;9.38;;;;;;;;;;7391953;19;20107;-73
2022/10/27 13:12:54;;;;;;;16.38;9.88;;;;;;;;;;7390851;19;20007;-72
2022/10/27 13:15:44;;;;;;;15.90;9.65;;;;;;;;;;7394373;19;20019;-72
2022/10/27 13:18:37;;;;;;;16.20;8.83;;;;;;;;;;7391846;19;20556;-72
2022/10/27 13:21:13;;;;;;;24.77;14.35;;;;;;;;;;7391603;19;20026;-71
2022/10/27 13:23:38;;;;;;;22.33;11.88;;;;;;;;;;7382781;19;20009;-71
2022/10/27 13:26:30;;;;;;;15.80;8.47;;;;;;;;;;7390113;19;20372;-71
2022/10/27 13:29:04;;;;;;;15.18;9.35;;;;;;;;;;7391459;19;20335;-72
2022/10/27 13:31:29;;;;;;;14.63;9.30;;;;;;;;;;7391898;19;19994;-72
2022/10/27 13:34:01;;;;;;;14.15;9.15;;;;;;;;;;7389087;19;20070;-72
2022/10/27 13:36:26;;;;;;;18.20;9.77;;;;;;;;;;7390102;19;20010;-72
2022/10/27 13:39:13;;;;;;;15.55;9.38;;;;;;;;;;7391836;19;20315;-71
2022/10/27 13:42:00;;;;;;;16.63;9.80;;;;;;;;;;7388868;19;20054;-72
2022/10/27 13:44:32;;;;;;;17.40;8.95;;;;;;;;;;7392203;19;19998;-72
2022/10/27 13:47:04;;;;;;;16.65;10.00;;;;;;;;;;7392502;19;20003;-71
2022/10/27 13:49:56;;;;;;;14.60;9.52;;;;;;;;;;7389670;19;20025;-72
2022/10/27 13:52:23;;;;;;;17.23;10.40;;;;;;;;;;7389268;19;20025;-71
2022/10/27 13:54:56;;;;;;;20.73;10.80;;;;;;;;;;7392282;19;20003;-71
2022/10/27 13:57:40;;;;;;;15.52;9.73;;;;;;;;;;7389589;19;19998;-72
2022/10/27 14:00:11;;;;;;;14.68;9.52;;;;;;;;;;7391302;19;20026;-73
2022/10/27 14:02:52;;;;;;;17.90;9.80;;;;;;;;;;7389708;19;20009;-73
2022/10/27 14:05:32;;;;;;;18.55;9.73;;;;;;;;;;7385917;19;20014;-73
2022/10/27 14:07:59;;;;;;;16.35;9.13;;;;;;;;;;7390854;19;20013;-72
2022/10/27 14:10:26;;;;;;;18.27;8.55;;;;;;;;;;7390882;19;20274;-72
2022/10/27 14:12:52;;;;;;;15.50;7.70;;;;;;;;;;7389394;19;20523;-71
2022/10/27 14:15:35;;;;;;;13.30;8.82;;;;;;;;;;7385911;19;20015;-72
2022/10/27 14:18:01;;;;;;;15.90;8.40;;;;;;;;;;7386075;19;20059;-72
2022/10/27 14:20:30;;;;;;;15.65;8.43;;;;;;;;;;7392222;19;20003;-72
2022/10/27 14:23:13;;;;;;;14.45;8.18;;;;;;;;;;7388940;19;20120;-71
2022/10/27 14:25:39;;;;;;;13.38;7.53;;;;;;;;;;7389044;19;20011;-72
2022/10/27 14:28:15;;;;;;;14.52;7.78;;;;;;;;;;7379662;19;20460;-77
2022/10/27 14:30:45;;;;;;;14.20;7.00;;;;;;;;;;7387906;19;20010;-80
2022/10/27 14:33:26;;;;;;;17.13;8.00;;;;;;;;;;7387649;19;20037;-74
2022/10/27 14:36:16;;;;;;;12.95;7.63;;;;;;;;;;7389826;19;20011;-78
2022/10/27 14:38:43;;;;;;;;;;;;;;;;;;7389177;19;20662;-75
2022/10/27 14:41:20;;;;;;;10.77;6.30;;;;;;;;;;7390057;19;20488;-78
2022/10/27 14:43:51;;;;;;;14.20;7.32;;;;;;;;;;7390285;19;20006;-78
2022/10/27 14:46:20;;;;;;;13.15;7.60;;;;;;;;;;7388153;19;20006;-78
2022/10/27 14:48:53;;;;;;;12.30;7.68;;;;;;;;;;7390815;19;20042;-77
2022/10/27 14:51:18;;;;;;;15.50;7.32;;;;;;;;;;7386868;19;20089;-76
2022/10/27 14:53:49;;;;;;;13.70;7.15;;;;;;;;;;7386809;19;20040;-74
2022/10/27 14:56:18;;;;;;;15.15;8.27;;;;;;;;;;7390458;19;20582;-75